Azalea, OR

2:48 AM PDT on August 31, 2014 (GMT -0700)
wolf creek | Change Station
CLOSE
Current Station
Personal Weather Station
Location: Wolf Creek, OR
Elevation: 1503 ft
Nearby Weather Stations

Elev 1503 ft 42.71 °N, 123.37 °W | Updated 1 second ago

Partly Cloudy
Partly Cloudy
53.8 °F
Feels Like 53.8 °F
N
0.0
Wind Variable Wind from NNW
Gusts 0.0 mph

Today
High -- | Low -- °F
--% Chance of Precip.
Yesterday
High -- | Low -- °F
Precip. -- in
6:36 AM 7:48 PM
Waxing Crescent, 29% visible
Pressure 30.06 in
Visibility 10.0 miles
Clouds Clear
Dew Point 48 °F
Humidity 82%
Rainfall 0.00 in
Snow Depth Not available.
UV 0 out of 12
Pollen 6.20 out of 12
Air Quality Not available.
Flu Activity Not available.
METAR KRBG 310853Z AUTO 00000KT 10SM CLR 14/11 A3006 RMK AO2 SLP177 T01390106 51006

More Conditions Fewer Conditions

Pressure 30.06 in
Visibility 10.0 miles
Clouds Clear
Dew Point 48 °F
Humidity 82%
Rainfall 0.00 in
Snow Depth Not available.
UV 0 out of 12
Pollen 6.20 out of 12
Air Quality Not available.
Flu Activity Not available.
METAR KRBG 310853Z AUTO 00000KT 10SM CLR 14/11 A3006 RMK AO2 SLP177 T01390106 51006

More Conditions Fewer Conditions

10-Day Weather Forecast

Almanac

Astronomy

Aug. 31, 2014 Rise Set
Actual Time 6:36 AM PDT 7:48 PM PDT
Civil Twilight 6:07 AM PDT 8:17 PM PDT
Nautical Twilight 5:32 AM PDT 8:52 PM PDT
Astronomical Twilight 4:55 AM PDT 9:29 PM PDT
Moon 12:37 PM PDT 10:58 PM PDT
Length of Visible Light 14h 10m
Length of Day
13h 12m
Tomorrow will be 2m 47s shorter.
Waxing Crescent, 29% of the Moon is Illuminated
Today
Waxing Crescent
Sep 2
First Quarter
Sep 8
Full
Sep 15
Last Quarter
Sep 24
New

Today's Extremes

State Highs State Lows

Community

WunderPhotos

Upload Photos

1,748,834 photos uploaded!

Nearby

Snow Depth

Station Depth Elevation
Bigelow Camp 1 in 5120 ft
Fish Lake 0 in 4665 ft
Annie Springs 0 in 6020 ft
Big Red Mountain 0 in 6250 ft
Sevenmile Marsh 0 in 6200 ft

Earthquake Activity

City Distance Mag. Time & Date
No recent earthquake activity has been reported nearby.
Minimum magnitude displayed is 2.5.

Coastal Water Temperatures

Place Temperature
No Stations Reporting

Nearby Weather Stations